Anch, Alaska
Current Conditions -  °F | °C
As of 12:46 AM on Monday 20 Oct 2014 (Local Time) from PAED Reporting Station
Light Snow Light Snow  
Wind Chill: 32°   Ceiling: 300
Heat Index: 32°   Visibility: 9mi
Dew Point: 32°   Wind: 1mph
Humidity: 100%   Direction: 220°SW
Pressure: 29.01"   Gusts: NA
Location:  61.2265°N, 149.62°W
Report Text: PAED 200846Z 22001KT 9SM -SN BKN003 OVC008 00/00 A2901 RMK AO2A
Loading
Personal Weather Stations






























Interactive Weather Map New forecast layout! Learn more

10-Day Weather Forecast

Advertisements
Track Severe Weather on mobile